createdAt,value
2022-09-21T00:01:31.906Z,99061.00
2022-09-21T00:04:04.546Z,99068.00
2022-09-21T00:06:35.170Z,99060.00
2022-09-21T00:09:05.024Z,99064.00
2022-09-21T00:11:34.314Z,99055.00
2022-09-21T00:14:12.736Z,99065.00
2022-09-21T00:16:43.018Z,99067.00
2022-09-21T00:19:11.905Z,99057.00
2022-09-21T00:21:39.448Z,99072.00
2022-09-21T00:24:08.214Z,99072.00
2022-09-21T00:26:35.544Z,99071.00
2022-09-21T00:29:05.020Z,99069.00
2022-09-21T00:31:33.156Z,99075.00
2022-09-21T00:34:01.150Z,99068.00
2022-09-21T00:36:29.093Z,99070.00
2022-09-21T00:39:03.709Z,99072.00
2022-09-21T00:41:34.319Z,99065.00
2022-09-21T00:44:28.630Z,99072.00
2022-09-21T00:47:15.503Z,99073.00
2022-09-21T00:49:49.537Z,99064.00
2022-09-21T00:52:19.564Z,99057.00
2022-09-21T00:55:00.628Z,99063.00
2022-09-21T00:57:31.276Z,99068.00
2022-09-21T01:00:02.555Z,99068.00
2022-09-21T01:02:30.047Z,99065.00
2022-09-21T01:04:57.501Z,99068.00
2022-09-21T01:07:33.659Z,99058.00
2022-09-21T01:10:11.952Z,99067.00
2022-09-21T01:13:41.457Z,99058.00
2022-09-21T01:17:09.325Z,99060.00
2022-09-21T01:20:38.360Z,99061.00
2022-09-21T01:24:19.938Z,99058.00
2022-09-21T01:27:41.874Z,99071.00
2022-09-21T01:30:19.566Z,99061.00
2022-09-21T01:33:28.268Z,99065.00
2022-09-21T01:36:05.983Z,99067.00
2022-09-21T01:38:45.349Z,99062.00
2022-09-21T01:41:19.776Z,99073.00
2022-09-21T01:43:56.881Z,99069.00
2022-09-21T01:46:32.355Z,99063.00
2022-09-21T01:49:14.099Z,99066.00
2022-09-21T01:51:58.385Z,99071.00
2022-09-21T01:54:39.632Z,99071.00
2022-09-21T01:57:36.919Z,99064.00
2022-09-21T02:00:07.259Z,99067.00
2022-09-21T02:02:51.164Z,99066.00
2022-09-21T02:05:23.588Z,99075.00
2022-09-21T02:07:52.648Z,99060.00
2022-09-21T02:10:45.946Z,99062.00
2022-09-21T02:13:16.640Z,99063.00
2022-09-21T02:16:26.124Z,99063.00
2022-09-21T02:20:03.944Z,99050.00
2022-09-21T02:23:29.541Z,99064.00
2022-09-21T02:26:17.353Z,99066.00
2022-09-21T02:29:33.504Z,99057.00
2022-09-21T02:32:12.276Z,99075.00
2022-09-21T02:35:02.416Z,99068.00
2022-09-21T02:37:57.043Z,99060.00
2022-09-21T02:40:53.629Z,99056.00
2022-09-21T02:43:39.400Z,99062.00
2022-09-21T02:46:21.382Z,99064.00
2022-09-21T02:49:03.629Z,99064.00
2022-09-21T02:51:41.353Z,99061.00
2022-09-21T02:54:14.385Z,99058.00
2022-09-21T02:56:44.552Z,99062.00
2022-09-21T02:59:16.698Z,99062.00
2022-09-21T03:01:44.615Z,99061.00
2022-09-21T03:04:12.301Z,99059.00
2022-09-21T03:06:39.601Z,99051.00
2022-09-21T03:09:07.039Z,99053.00
2022-09-21T03:11:36.113Z,99056.00
2022-09-21T03:14:08.595Z,99057.00
2022-09-21T03:16:37.576Z,99048.00
2022-09-21T03:19:06.136Z,99037.00
2022-09-21T03:21:34.368Z,99049.00
2022-09-21T03:24:01.999Z,99042.00
2022-09-21T03:26:29.704Z,99039.00
2022-09-21T03:28:57.091Z,99040.00
2022-09-21T03:31:24.430Z,99039.00
2022-09-21T03:33:51.798Z,99039.00
2022-09-21T03:36:19.521Z,99042.00
2022-09-21T03:38:46.827Z,99047.00
2022-09-21T03:41:15.271Z,99051.00
2022-09-21T03:43:42.539Z,99055.00
2022-09-21T03:46:10.148Z,99047.00
2022-09-21T03:48:37.447Z,99047.00
2022-09-21T03:51:04.883Z,99055.00
2022-09-21T03:53:32.153Z,99057.00
2022-09-21T03:55:59.420Z,99052.00
2022-09-21T03:58:26.772Z,99051.00
2022-09-21T04:00:54.788Z,99058.00
2022-09-21T04:03:22.260Z,99060.00
2022-09-21T04:05:49.787Z,99055.00
2022-09-21T04:08:17.028Z,99051.00
2022-09-21T04:10:44.387Z,99055.00
2022-09-21T04:13:14.358Z,99051.00
2022-09-21T04:15:41.680Z,99050.00
2022-09-21T04:18:09.062Z,99043.00
2022-09-21T04:20:36.392Z,99053.00
2022-09-21T04:23:03.748Z,99061.00
2022-09-21T04:25:31.031Z,99061.00
2022-09-21T04:27:58.324Z,99065.00
2022-09-21T04:30:25.787Z,99061.00
2022-09-21T04:32:53.320Z,99063.00
2022-09-21T04:35:21.254Z,99062.00
2022-09-21T04:37:48.499Z,99058.00
2022-09-21T04:40:15.909Z,99058.00
2022-09-21T04:42:43.257Z,99061.00
2022-09-21T04:45:11.209Z,99064.00
2022-09-21T04:47:38.472Z,99063.00
2022-09-21T04:50:07.084Z,99069.00
2022-09-21T04:52:34.373Z,99064.00
2022-09-21T04:55:01.665Z,99075.00
2022-09-21T04:57:29.644Z,99074.00
2022-09-21T04:59:56.913Z,99071.00
2022-09-21T05:02:25.344Z,99064.00
2022-09-21T05:04:52.600Z,99069.00
2022-09-21T05:07:19.876Z,99066.00
2022-09-21T05:10:05.279Z,99067.00
2022-09-21T05:12:39.709Z,99070.00
2022-09-21T05:15:11.406Z,99071.00
2022-09-21T05:17:39.968Z,99065.00
2022-09-21T05:20:07.900Z,99076.00
2022-09-21T05:22:35.590Z,99074.00
2022-09-21T05:25:03.128Z,99074.00
2022-09-21T05:27:30.375Z,99083.00
2022-09-21T05:29:58.281Z,99080.00
2022-09-21T05:32:53.833Z,99082.00
2022-09-21T05:36:10.489Z,99086.00
2022-09-21T05:38:38.219Z,99094.00
2022-09-21T05:41:06.587Z,99092.00
2022-09-21T05:43:34.599Z,99091.00
2022-09-21T05:46:59.147Z,99096.00
2022-09-21T05:50:51.036Z,99100.00
2022-09-21T05:54:12.108Z,99106.00
2022-09-21T05:57:12.576Z,99100.00
2022-09-21T06:00:16.360Z,99104.00
2022-09-21T06:03:31.083Z,99113.00
2022-09-21T06:05:59.452Z,99108.00
2022-09-21T06:08:27.643Z,99111.00
2022-09-21T06:10:57.645Z,99112.00
2022-09-21T06:13:24.933Z,99107.00
2022-09-21T06:15:52.416Z,99105.00
2022-09-21T06:18:20.016Z,99107.00
2022-09-21T06:20:47.580Z,99115.00
2022-09-21T06:23:15.615Z,99113.00
2022-09-21T06:25:44.499Z,99115.00
2022-09-21T06:28:13.391Z,99101.00
2022-09-21T06:30:42.857Z,99109.00
2022-09-21T06:33:10.601Z,99116.00
2022-09-21T06:35:38.080Z,99108.00
2022-09-21T06:38:08.133Z,99118.00
2022-09-21T06:40:38.969Z,99114.00
2022-09-21T06:43:06.620Z,99114.00
2022-09-21T06:45:34.226Z,99118.00
2022-09-21T06:48:01.783Z,99123.00
2022-09-21T06:50:29.446Z,99109.00
2022-09-21T06:53:03.509Z,99111.00
2022-09-21T06:55:32.077Z,99110.00
2022-09-21T06:58:05.462Z,99115.00
2022-09-21T07:00:33.527Z,99114.00
2022-09-21T07:03:04.470Z,99119.00
2022-09-21T07:05:34.208Z,99115.00
2022-09-21T07:08:02.443Z,99117.00
2022-09-21T07:10:29.756Z,99121.00
2022-09-21T07:13:02.707Z,99116.00
2022-09-21T07:15:31.180Z,99113.00
2022-09-21T07:18:06.148Z,99108.00
2022-09-21T07:20:33.795Z,99118.00
2022-09-21T07:23:01.789Z,99115.00
2022-09-21T07:25:29.299Z,99116.00
2022-09-21T07:27:56.571Z,99116.00
2022-09-21T07:30:23.933Z,99119.00
2022-09-21T07:32:51.252Z,99125.00
2022-09-21T07:35:20.121Z,99123.00
2022-09-21T07:37:47.367Z,99124.00
2022-09-21T07:40:14.749Z,99120.00
2022-09-21T07:42:44.848Z,99128.00
2022-09-21T07:45:12.298Z,99128.00
2022-09-21T07:47:39.576Z,99124.00
2022-09-21T07:50:07.602Z,99117.00
2022-09-21T07:52:35.147Z,99125.00
2022-09-21T07:55:02.425Z,99115.00
2022-09-21T07:57:48.215Z,99114.00
2022-09-21T08:00:15.764Z,99116.00
2022-09-21T08:02:47.498Z,99114.00
2022-09-21T08:05:17.615Z,99108.00
2022-09-21T08:07:44.972Z,99114.00
2022-09-21T08:10:13.058Z,99106.00
2022-09-21T08:12:41.196Z,99104.00
2022-09-21T08:15:25.011Z,99112.00
2022-09-21T08:17:58.715Z,99105.00
2022-09-21T08:20:26.080Z,99094.00
2022-09-21T08:22:56.279Z,99098.00
2022-09-21T08:25:23.923Z,99098.00
2022-09-21T08:27:51.180Z,99102.00
2022-09-21T08:30:18.512Z,99108.00
2022-09-21T08:32:52.065Z,99105.00
2022-09-21T08:35:19.410Z,99110.00
2022-09-21T08:37:46.800Z,99115.00
2022-09-21T08:40:16.789Z,99107.00
2022-09-21T08:43:09.645Z,99121.00
2022-09-21T08:45:46.692Z,99107.00
2022-09-21T08:48:30.026Z,99116.00
2022-09-21T08:51:11.354Z,99110.00
2022-09-21T08:53:48.117Z,99112.00
2022-09-21T08:56:16.395Z,99116.00
2022-09-21T08:58:43.991Z,99118.00
2022-09-21T09:01:20.318Z,99105.00
2022-09-21T09:04:31.215Z,99117.00
2022-09-21T09:07:33.271Z,99117.00
2022-09-21T09:10:27.984Z,99115.00
2022-09-21T09:14:13.669Z,99102.00
2022-09-21T09:17:36.224Z,99100.00
2022-09-21T09:20:36.120Z,99101.00
2022-09-21T09:23:18.292Z,99104.00
2022-09-21T09:26:10.863Z,99100.00
2022-09-21T09:29:01.984Z,99097.00
2022-09-21T09:31:40.180Z,99095.00
2022-09-21T09:34:33.612Z,99087.00
2022-09-21T09:37:16.621Z,99088.00
2022-09-21T09:39:54.800Z,99086.00
2022-09-21T09:43:07.535Z,99074.00
2022-09-21T09:46:13.543Z,99074.00
2022-09-21T09:49:38.612Z,99067.00
2022-09-21T09:52:11.130Z,99052.00
2022-09-21T09:54:38.525Z,99065.00
2022-09-21T09:57:07.376Z,99062.00
2022-09-21T09:59:54.413Z,99057.00
2022-09-21T10:02:29.456Z,99054.00
2022-09-21T10:05:07.322Z,99056.00
2022-09-21T10:07:45.893Z,99051.00
2022-09-21T10:10:29.253Z,99042.00
2022-09-21T10:13:37.943Z,99033.00
2022-09-21T10:16:22.895Z,99032.00
2022-09-21T10:18:56.459Z,99026.00
2022-09-21T10:21:41.360Z,99018.00
2022-09-21T10:24:23.540Z,99021.00
2022-09-21T10:27:05.048Z,99018.00
2022-09-21T10:29:47.716Z,99019.00
2022-09-21T10:32:26.574Z,99011.00
2022-09-21T10:35:10.342Z,99016.00
2022-09-21T10:37:48.478Z,99014.00
2022-09-21T10:40:21.450Z,99003.00
2022-09-21T10:43:00.437Z,98999.00
2022-09-21T10:45:37.026Z,98993.00
2022-09-21T10:48:20.972Z,98999.00
2022-09-21T10:50:51.576Z,98994.00
2022-09-21T10:53:36.142Z,98991.00
2022-09-21T10:56:17.607Z,98990.00
2022-09-21T10:59:27.284Z,98975.00
2022-09-21T11:02:00.162Z,98974.00
2022-09-21T11:04:53.708Z,98970.00
2022-09-21T11:07:47.852Z,98975.00
2022-09-21T11:10:51.233Z,98976.00
2022-09-21T11:13:41.024Z,98981.00
2022-09-21T11:16:48.728Z,98977.00
2022-09-21T11:19:52.411Z,98981.00
2022-09-21T11:22:57.715Z,98971.00
2022-09-21T11:25:43.765Z,98974.00
2022-09-21T11:28:28.668Z,98974.00
2022-09-21T11:31:40.607Z,98963.00
2022-09-21T11:34:55.860Z,98964.00
2022-09-21T11:38:11.748Z,98952.00
2022-09-21T11:40:55.807Z,98952.00
2022-09-21T11:44:18.855Z,98944.00
2022-09-21T11:47:58.483Z,98954.00
2022-09-21T11:51:38.717Z,98942.00
2022-09-21T11:55:00.628Z,98941.00
2022-09-21T11:57:38.739Z,98928.00
2022-09-21T12:00:21.513Z,98932.00
2022-09-21T12:03:45.940Z,98932.00
2022-09-21T12:07:01.427Z,98923.00
2022-09-21T12:10:28.189Z,98916.00
2022-09-21T12:13:43.888Z,98915.00
2022-09-21T12:17:06.385Z,98919.00
2022-09-21T12:20:06.157Z,98918.00
2022-09-21T12:22:43.743Z,98926.00
2022-09-21T12:25:43.796Z,98918.00
2022-09-21T12:28:49.266Z,98914.00
2022-09-21T12:31:30.308Z,98907.00
2022-09-21T12:34:38.031Z,98911.00
2022-09-21T12:37:32.524Z,98907.00
2022-09-21T12:40:36.653Z,98901.00
2022-09-21T12:43:39.613Z,98902.00
2022-09-21T12:46:29.955Z,98893.00
2022-09-21T12:49:03.099Z,98897.00
2022-09-21T12:51:43.000Z,98898.00
2022-09-21T12:55:10.024Z,98894.00
2022-09-21T12:58:41.364Z,98891.00
2022-09-21T13:01:56.989Z,98882.00
2022-09-21T13:05:15.999Z,98871.00
2022-09-21T13:08:31.030Z,98856.00
2022-09-21T13:11:07.823Z,98841.00
2022-09-21T13:13:56.327Z,98837.00
2022-09-21T13:16:40.201Z,98861.00
2022-09-21T13:19:13.459Z,98852.00
2022-09-21T13:21:42.154Z,98842.00
2022-09-21T13:24:30.457Z,98871.00
2022-09-21T13:27:05.026Z,98851.00
2022-09-21T13:29:38.047Z,98850.00
2022-09-21T13:32:24.053Z,98848.00
2022-09-21T13:34:51.588Z,98869.00
2022-09-21T13:37:19.120Z,98869.00
2022-09-21T13:40:06.230Z,98877.00
2022-09-21T13:42:33.675Z,98876.00
2022-09-21T13:45:15.597Z,98847.00
2022-09-21T13:47:47.308Z,98854.00
2022-09-21T13:50:39.159Z,98860.00
2022-09-21T13:53:29.611Z,98856.00
2022-09-21T13:56:16.724Z,98868.00
2022-09-21T13:58:52.146Z,98838.00
2022-09-21T14:01:45.899Z,98843.00
2022-09-21T14:04:31.678Z,98861.00
2022-09-21T14:07:08.041Z,98839.00
2022-09-21T14:10:03.686Z,98844.00
2022-09-21T14:12:44.576Z,98843.00
2022-09-21T14:15:19.197Z,98840.00
2022-09-21T14:18:37.653Z,98837.00
2022-09-21T14:21:18.349Z,98848.00
2022-09-21T14:24:07.679Z,98853.00
2022-09-21T14:26:39.734Z,98851.00
2022-09-21T14:29:48.271Z,98852.00
2022-09-21T14:32:25.564Z,98853.00
2022-09-21T14:35:08.141Z,98852.00
2022-09-21T14:37:52.162Z,98853.00
2022-09-21T14:40:42.248Z,98859.00
2022-09-21T14:43:20.408Z,98852.00
2022-09-21T14:46:36.798Z,98856.00
2022-09-21T14:49:51.188Z,98846.00
2022-09-21T14:52:43.375Z,98856.00
2022-09-21T14:56:22.551Z,98847.00
2022-09-21T15:00:00.891Z,98840.00
2022-09-21T15:02:35.703Z,98845.00
2022-09-21T15:05:09.606Z,98847.00
2022-09-21T15:08:56.548Z,98846.00
2022-09-21T15:11:44.280Z,98841.00
2022-09-21T15:14:38.236Z,98851.00
2022-09-21T15:17:30.038Z,98848.00
2022-09-21T15:20:16.213Z,98842.00
2022-09-21T15:22:44.185Z,98846.00
2022-09-21T15:25:14.671Z,98844.00
2022-09-21T15:27:47.367Z,98846.00
2022-09-21T15:30:33.125Z,98847.00
2022-09-21T15:33:02.751Z,98843.00
2022-09-21T15:35:33.739Z,98845.00
2022-09-21T15:38:01.671Z,98847.00
2022-09-21T15:40:35.893Z,98837.00
2022-09-21T15:43:11.728Z,98848.00
2022-09-21T15:46:07.441Z,98857.00
2022-09-21T15:48:42.210Z,98851.00
2022-09-21T15:51:31.148Z,98846.00
2022-09-21T15:54:30.530Z,98849.00
2022-09-21T15:57:05.921Z,98849.00
2022-09-21T15:59:35.436Z,98844.00
2022-09-21T16:02:17.352Z,98848.00
2022-09-21T16:04:52.471Z,98859.00
2022-09-21T16:07:38.823Z,98850.00
2022-09-21T16:10:30.818Z,98852.00
2022-09-21T16:13:43.821Z,98858.00
2022-09-21T16:16:14.849Z,98853.00
2022-09-21T16:18:54.422Z,98852.00
2022-09-21T16:21:27.671Z,98861.00
2022-09-21T16:23:59.183Z,98865.00
2022-09-21T16:26:38.001Z,98858.00
2022-09-21T16:29:45.531Z,98868.00
2022-09-21T16:32:18.695Z,98869.00
2022-09-21T16:34:52.685Z,98866.00
2022-09-21T16:37:25.912Z,98875.00
2022-09-21T16:40:00.566Z,98866.00
2022-09-21T16:42:34.331Z,98875.00
2022-09-21T16:45:11.264Z,98867.00
2022-09-21T16:47:39.248Z,98872.00
2022-09-21T16:50:18.998Z,98869.00
2022-09-21T16:52:52.058Z,98871.00
2022-09-21T16:55:24.351Z,98878.00
2022-09-21T16:57:54.327Z,98875.00
2022-09-21T17:00:22.165Z,98872.00
2022-09-21T17:02:49.795Z,98869.00
2022-09-21T17:05:20.683Z,98874.00
2022-09-21T17:07:59.198Z,98874.00
2022-09-21T17:10:37.873Z,98881.00
2022-09-21T17:13:06.890Z,98879.00
2022-09-21T17:15:36.352Z,98882.00
2022-09-21T17:18:04.672Z,98883.00
2022-09-21T17:20:43.760Z,98885.00
2022-09-21T17:23:12.076Z,98879.00
2022-09-21T17:25:39.435Z,98879.00
2022-09-21T17:28:25.746Z,98877.00
2022-09-21T17:30:54.793Z,98878.00
2022-09-21T17:33:25.043Z,98885.00
2022-09-21T17:35:53.208Z,98885.00
2022-09-21T17:38:20.738Z,98887.00
2022-09-21T17:40:48.305Z,98882.00
2022-09-21T17:43:54.896Z,98886.00
2022-09-21T17:47:01.408Z,98888.00
2022-09-21T17:49:29.968Z,98891.00
2022-09-21T17:52:16.288Z,98895.00
2022-09-21T17:54:43.927Z,98896.00
2022-09-21T17:57:41.924Z,98899.00
2022-09-21T18:00:32.250Z,98901.00
2022-09-21T18:03:00.009Z,98907.00
2022-09-21T18:05:30.761Z,98907.00
2022-09-21T18:07:59.014Z,98910.00
2022-09-21T18:10:27.520Z,98910.00
2022-09-21T18:13:47.954Z,98918.00
2022-09-21T18:17:01.077Z,98913.00
2022-09-21T18:20:34.231Z,98920.00
2022-09-21T18:23:37.663Z,98917.00
2022-09-21T18:26:05.980Z,98914.00
2022-09-21T18:28:48.012Z,98926.00
2022-09-21T18:32:06.993Z,98919.00
2022-09-21T18:35:18.662Z,98921.00
2022-09-21T18:38:26.911Z,98921.00
2022-09-21T18:41:46.144Z,98927.00
2022-09-21T18:44:49.867Z,98919.00
2022-09-21T18:47:38.842Z,98925.00
2022-09-21T18:51:14.911Z,98926.00
2022-09-21T18:54:03.477Z,98926.00
2022-09-21T18:56:37.864Z,98928.00
2022-09-21T18:59:07.153Z,98932.00
2022-09-21T19:01:35.180Z,98944.00
2022-09-21T19:04:03.327Z,98926.00
2022-09-21T19:06:44.559Z,98936.00
2022-09-21T19:09:37.444Z,98941.00
2022-09-21T19:13:02.375Z,98948.00
2022-09-21T19:16:00.820Z,98946.00
2022-09-21T19:19:06.740Z,98945.00
2022-09-21T19:22:01.505Z,98951.00
2022-09-21T19:25:04.524Z,98951.00
2022-09-21T19:27:46.968Z,98944.00
2022-09-21T19:30:17.116Z,98945.00
2022-09-21T19:33:02.889Z,98950.00
2022-09-21T19:35:34.364Z,98952.00
2022-09-21T19:38:09.087Z,98949.00
2022-09-21T19:40:39.494Z,98954.00
2022-09-21T19:43:40.228Z,98954.00
2022-09-21T19:47:12.147Z,98947.00
2022-09-21T19:49:54.706Z,98948.00
2022-09-21T19:52:35.639Z,98945.00
2022-09-21T19:55:23.551Z,98948.00
2022-09-21T19:58:14.502Z,98955.00
2022-09-21T20:00:43.710Z,98949.00
2022-09-21T20:03:44.690Z,98955.00
2022-09-21T20:06:44.193Z,98959.00
2022-09-21T20:09:42.133Z,98963.00
2022-09-21T20:12:42.090Z,98958.00
2022-09-21T20:15:29.379Z,98961.00
2022-09-21T20:18:14.773Z,98957.00
2022-09-21T20:20:43.080Z,98964.00
2022-09-21T20:23:13.902Z,98961.00
2022-09-21T20:26:01.414Z,98954.00
2022-09-21T20:28:29.148Z,98968.00
2022-09-21T20:30:56.914Z,98954.00
2022-09-21T20:33:26.873Z,98951.00
2022-09-21T20:35:55.890Z,98961.00
2022-09-21T20:38:23.516Z,98957.00
2022-09-21T20:40:52.339Z,98953.00
2022-09-21T20:43:21.915Z,98952.00
2022-09-21T20:45:49.380Z,98962.00
2022-09-21T20:48:17.488Z,98952.00
2022-09-21T20:50:50.370Z,98963.00
2022-09-21T20:53:19.264Z,98960.00
2022-09-21T20:56:00.963Z,98952.00
2022-09-21T20:58:35.233Z,98950.00
2022-09-21T21:01:10.009Z,98960.00
2022-09-21T21:03:37.504Z,98957.00
2022-09-21T21:06:18.649Z,98949.00
2022-09-21T21:08:46.264Z,98954.00
2022-09-21T21:11:16.908Z,98958.00
2022-09-21T21:13:44.286Z,98959.00
2022-09-21T21:16:12.499Z,98957.00
2022-09-21T21:18:41.624Z,98962.00
2022-09-21T21:21:09.737Z,98955.00
2022-09-21T21:23:57.161Z,98962.00
2022-09-21T21:26:43.858Z,98958.00
2022-09-21T21:29:14.504Z,98962.00
2022-09-21T21:31:42.207Z,98962.00
2022-09-21T21:34:09.549Z,98963.00
2022-09-21T21:36:36.845Z,98962.00
2022-09-21T21:39:04.159Z,98961.00
2022-09-21T21:41:32.655Z,98966.00
2022-09-21T21:44:00.196Z,98961.00
2022-09-21T21:46:28.027Z,98958.00
2022-09-21T21:48:55.327Z,98956.00
2022-09-21T21:51:22.595Z,98943.00
2022-09-21T21:53:49.869Z,98959.00
2022-09-21T21:56:20.083Z,98954.00
2022-09-21T21:58:47.525Z,98960.00
2022-09-21T22:01:22.255Z,98958.00
2022-09-21T22:04:01.676Z,98957.00
2022-09-21T22:06:33.391Z,98955.00
2022-09-21T22:09:03.499Z,98952.00
2022-09-21T22:11:32.055Z,98947.00
2022-09-21T22:14:02.645Z,98942.00
2022-09-21T22:16:32.196Z,98940.00
2022-09-21T22:19:04.685Z,98945.00
2022-09-21T22:21:48.187Z,98955.00
2022-09-21T22:24:17.810Z,98944.00
2022-09-21T22:26:48.424Z,98946.00
2022-09-21T22:29:17.312Z,98946.00
2022-09-21T22:31:50.089Z,98945.00
2022-09-21T22:34:17.680Z,98940.00
2022-09-21T22:36:45.107Z,98938.00
2022-09-21T22:39:12.946Z,98944.00
2022-09-21T22:41:42.787Z,98934.00
2022-09-21T22:44:11.361Z,98945.00
2022-09-21T22:46:39.109Z,98941.00
2022-09-21T22:49:07.739Z,98945.00
2022-09-21T22:51:37.857Z,98942.00
2022-09-21T22:54:05.241Z,98951.00
2022-09-21T22:56:35.039Z,98945.00
2022-09-21T22:59:05.428Z,98950.00
2022-09-21T23:01:40.223Z,98951.00
2022-09-21T23:04:13.630Z,98952.00
2022-09-21T23:06:45.260Z,98951.00
2022-09-21T23:09:21.360Z,98953.00
2022-09-21T23:11:54.917Z,98952.00
2022-09-21T23:14:23.537Z,98957.00
2022-09-21T23:16:51.190Z,98950.00
2022-09-21T23:19:18.540Z,98953.00
2022-09-21T23:21:50.137Z,98954.00
2022-09-21T23:24:20.334Z,98957.00
2022-09-21T23:26:52.963Z,98958.00
2022-09-21T23:29:20.553Z,98956.00
2022-09-21T23:31:47.993Z,98951.00
2022-09-21T23:34:16.422Z,98947.00
2022-09-21T23:36:45.445Z,98947.00
2022-09-21T23:39:15.209Z,98948.00
2022-09-21T23:41:42.885Z,98944.00
2022-09-21T23:44:11.168Z,98949.00
2022-09-21T23:46:40.918Z,98948.00
2022-09-21T23:49:09.007Z,98947.00
2022-09-21T23:51:36.911Z,98945.00
2022-09-21T23:54:04.967Z,98941.00
2022-09-21T23:56:32.768Z,98940.00
2022-09-21T23:59:00.937Z,98941.00
